sensor_id;sensor_type;location;lat;lon;timestamp;temperature;humidity
431;DHT22;202;48.764;9.172;2022-09-14T00:00:59;22.30;44.80
431;DHT22;202;48.764;9.172;2022-09-14T00:03:28;22.30;45.60
431;DHT22;202;48.764;9.172;2022-09-14T00:05:55;22.30;45.40
431;DHT22;202;48.764;9.172;2022-09-14T00:08:22;22.40;45.60
431;DHT22;202;48.764;9.172;2022-09-14T00:10:49;22.30;45.50
431;DHT22;202;48.764;9.172;2022-09-14T00:13:16;22.40;45.70
431;DHT22;202;48.764;9.172;2022-09-14T00:15:43;22.40;46.30
431;DHT22;202;48.764;9.172;2022-09-14T00:18:10;22.40;45.80
431;DHT22;202;48.764;9.172;2022-09-14T00:20:39;22.40;45.80
431;DHT22;202;48.764;9.172;2022-09-14T00:23:06;22.30;45.20
431;DHT22;202;48.764;9.172;2022-09-14T00:25:32;22.30;45.50
431;DHT22;202;48.764;9.172;2022-09-14T00:27:59;22.40;45.30
431;DHT22;202;48.764;9.172;2022-09-14T00:30:29;22.40;45.70
431;DHT22;202;48.764;9.172;2022-09-14T00:32:56;22.40;45.90
431;DHT22;202;48.764;9.172;2022-09-14T00:35:23;22.50;44.90
431;DHT22;202;48.764;9.172;2022-09-14T00:37:51;22.50;45.90
431;DHT22;202;48.764;9.172;2022-09-14T00:40:18;22.40;46.20
431;DHT22;202;48.764;9.172;2022-09-14T00:42:45;22.40;46.80
431;DHT22;202;48.764;9.172;2022-09-14T00:45:14;22.30;47.30
431;DHT22;202;48.764;9.172;2022-09-14T00:47:41;22.40;46.90
431;DHT22;202;48.764;9.172;2022-09-14T00:50:09;22.40;47.10
431;DHT22;202;48.764;9.172;2022-09-14T00:52:39;22.30;47.30
431;DHT22;202;48.764;9.172;2022-09-14T00:55:10;22.30;47.20
431;DHT22;202;48.764;9.172;2022-09-14T00:57:40;22.30;46.50
431;DHT22;202;48.764;9.172;2022-09-14T01:00:09;22.40;47.00
431;DHT22;202;48.764;9.172;2022-09-14T01:02:37;22.40;46.60
431;DHT22;202;48.764;9.172;2022-09-14T01:05:05;22.50;46.10
431;DHT22;202;48.764;9.172;2022-09-14T01:07:52;22.50;45.30
431;DHT22;202;48.764;9.172;2022-09-14T01:10:31;22.40;46.40
431;DHT22;202;48.764;9.172;2022-09-14T01:13:10;22.40;46.80
431;DHT22;202;48.764;9.172;2022-09-14T01:15:44;22.30;46.50
431;DHT22;202;48.764;9.172;2022-09-14T01:18:21;22.30;47.20
431;DHT22;202;48.764;9.172;2022-09-14T01:20:54;22.40;48.60
431;DHT22;202;48.764;9.172;2022-09-14T01:23:28;22.30;51.10
431;DHT22;202;48.764;9.172;2022-09-14T01:26:31;22.40;51.50
431;DHT22;202;48.764;9.172;2022-09-14T01:29:07;22.30;51.90
431;DHT22;202;48.764;9.172;2022-09-14T01:31:41;22.10;50.90
431;DHT22;202;48.764;9.172;2022-09-14T01:34:14;21.80;61.40
431;DHT22;202;48.764;9.172;2022-09-14T01:36:47;21.40;69.90
431;DHT22;202;48.764;9.172;2022-09-14T01:50:05;20.90;89.50
431;DHT22;202;48.764;9.172;2022-09-14T01:53:14;20.90;91.40
431;DHT22;202;48.764;9.172;2022-09-14T01:55:59;20.80;92.00
431;DHT22;202;48.764;9.172;2022-09-14T01:58:33;20.70;92.40
431;DHT22;202;48.764;9.172;2022-09-14T02:50:25;20.40;94.10
431;DHT22;202;48.764;9.172;2022-09-14T02:53:03;20.50;93.60
431;DHT22;202;48.764;9.172;2022-09-14T02:55:41;20.40;94.90
431;DHT22;202;48.764;9.172;2022-09-14T03:01:41;20.30;96.30
431;DHT22;202;48.764;9.172;2022-09-14T03:04:15;20.30;98.10
431;DHT22;202;48.764;9.172;2022-09-14T03:06:55;20.30;97.70
431;DHT22;202;48.764;9.172;2022-09-14T03:09:29;20.30;97.90
431;DHT22;202;48.764;9.172;2022-09-14T03:12:06;20.20;96.90
431;DHT22;202;48.764;9.172;2022-09-14T03:14:45;20.20;97.60
431;DHT22;202;48.764;9.172;2022-09-14T03:17:16;20.10;96.50
431;DHT22;202;48.764;9.172;2022-09-14T03:19:59;20.10;94.80
431;DHT22;202;48.764;9.172;2022-09-14T03:22:46;20.00;96.80
431;DHT22;202;48.764;9.172;2022-09-14T03:25:26;19.90;97.50
431;DHT22;202;48.764;9.172;2022-09-14T03:28:10;19.80;99.70
431;DHT22;202;48.764;9.172;2022-09-14T03:31:07;19.90;99.40
431;DHT22;202;48.764;9.172;2022-09-14T03:33:44;19.80;98.80
431;DHT22;202;48.764;9.172;2022-09-14T03:36:21;19.70;99.60
431;DHT22;202;48.764;9.172;2022-09-14T03:39:00;19.70;99.90
431;DHT22;202;48.764;9.172;2022-09-14T03:41:39;19.70;99.90
431;DHT22;202;48.764;9.172;2022-09-14T03:44:16;19.60;99.90
431;DHT22;202;48.764;9.172;2022-09-14T03:47:24;19.70;99.90
431;DHT22;202;48.764;9.172;2022-09-14T03:50:09;19.80;99.90
431;DHT22;202;48.764;9.172;2022-09-14T03:53:01;19.80;99.60
431;DHT22;202;48.764;9.172;2022-09-14T03:55:38;19.80;99.90
431;DHT22;202;48.764;9.172;2022-09-14T03:58:23;19.90;99.50
431;DHT22;202;48.764;9.172;2022-09-14T04:00:52;20.00;99.30
431;DHT22;202;48.764;9.172;2022-09-14T04:03:26;20.00;98.80
431;DHT22;202;48.764;9.172;2022-09-14T04:05:59;19.90;98.50
431;DHT22;202;48.764;9.172;2022-09-14T04:08:30;19.90;99.00
431;DHT22;202;48.764;9.172;2022-09-14T04:11:17;19.90;98.70
431;DHT22;202;48.764;9.172;2022-09-14T04:13:53;20.00;98.40
431;DHT22;202;48.764;9.172;2022-09-14T04:16:21;20.10;97.80
431;DHT22;202;48.764;9.172;2022-09-14T04:19:16;20.00;97.70
431;DHT22;202;48.764;9.172;2022-09-14T04:21:59;19.90;98.40
431;DHT22;202;48.764;9.172;2022-09-14T04:31:36;19.90;99.20
431;DHT22;202;48.764;9.172;2022-09-14T04:34:14;20.00;99.30
431;DHT22;202;48.764;9.172;2022-09-14T04:36:53;20.00;98.30
431;DHT22;202;48.764;9.172;2022-09-14T05:19:16;20.10;98.80
431;DHT22;202;48.764;9.172;2022-09-14T05:22:04;20.10;99.20
431;DHT22;202;48.764;9.172;2022-09-14T05:24:31;20.10;99.90
431;DHT22;202;48.764;9.172;2022-09-14T05:27:34;20.10;99.90
431;DHT22;202;48.764;9.172;2022-09-14T05:30:31;20.20;99.90
431;DHT22;202;48.764;9.172;2022-09-14T05:33:09;20.30;99.40
431;DHT22;202;48.764;9.172;2022-09-14T05:45:59;20.50;99.90
431;DHT22;202;48.764;9.172;2022-09-14T05:48:29;20.50;99.90
431;DHT22;202;48.764;9.172;2022-09-14T05:51:09;20.40;99.80
431;DHT22;202;48.764;9.172;2022-09-14T05:53:46;20.40;99.30
431;DHT22;202;48.764;9.172;2022-09-14T05:56:15;20.30;98.90
431;DHT22;202;48.764;9.172;2022-09-14T05:58:42;20.40;99.00
431;DHT22;202;48.764;9.172;2022-09-14T06:01:13;20.30;99.20
431;DHT22;202;48.764;9.172;2022-09-14T06:03:41;20.30;98.90
431;DHT22;202;48.764;9.172;2022-09-14T06:06:09;20.30;98.90
431;DHT22;202;48.764;9.172;2022-09-14T06:08:37;20.40;98.20
431;DHT22;202;48.764;9.172;2022-09-14T06:11:05;20.40;99.30
431;DHT22;202;48.764;9.172;2022-09-14T06:13:32;20.60;99.10
431;DHT22;202;48.764;9.172;2022-09-14T06:16:03;20.70;98.10
431;DHT22;202;48.764;9.172;2022-09-14T06:18:33;20.80;96.60
431;DHT22;202;48.764;9.172;2022-09-14T06:21:00;20.90;96.30
431;DHT22;202;48.764;9.172;2022-09-14T06:23:28;20.90;96.50
431;DHT22;202;48.764;9.172;2022-09-14T06:25:56;20.90;96.70
431;DHT22;202;48.764;9.172;2022-09-14T06:28:24;21.00;97.20
431;DHT22;202;48.764;9.172;2022-09-14T06:30:51;21.20;96.50
431;DHT22;202;48.764;9.172;2022-09-14T06:33:18;21.20;97.30
431;DHT22;202;48.764;9.172;2022-09-14T06:35:55;21.30;97.00
431;DHT22;202;48.764;9.172;2022-09-14T06:38:22;21.30;97.20
431;DHT22;202;48.764;9.172;2022-09-14T06:40:52;21.50;96.50
431;DHT22;202;48.764;9.172;2022-09-14T06:43:21;21.50;96.90
431;DHT22;202;48.764;9.172;2022-09-14T06:45:56;21.60;95.40
431;DHT22;202;48.764;9.172;2022-09-14T06:48:23;21.70;95.50
431;DHT22;202;48.764;9.172;2022-09-14T06:50:50;21.60;95.40
431;DHT22;202;48.764;9.172;2022-09-14T06:53:18;21.60;95.40
431;DHT22;202;48.764;9.172;2022-09-14T06:55:45;21.60;95.40
431;DHT22;202;48.764;9.172;2022-09-14T06:58:14;21.40;96.70
431;DHT22;202;48.764;9.172;2022-09-14T07:00:41;21.50;96.80
431;DHT22;202;48.764;9.172;2022-09-14T07:03:07;21.60;97.50
431;DHT22;202;48.764;9.172;2022-09-14T07:05:34;21.70;96.30
431;DHT22;202;48.764;9.172;2022-09-14T07:08:01;21.80;95.90
431;DHT22;202;48.764;9.172;2022-09-14T07:10:29;21.80;95.20
431;DHT22;202;48.764;9.172;2022-09-14T07:12:57;21.90;95.90
431;DHT22;202;48.764;9.172;2022-09-14T07:15:25;21.80;96.40
431;DHT22;202;48.764;9.172;2022-09-14T07:17:52;22.00;95.90
431;DHT22;202;48.764;9.172;2022-09-14T07:20:19;22.20;95.80
431;DHT22;202;48.764;9.172;2022-09-14T07:22:46;22.60;94.90
431;DHT22;202;48.764;9.172;2022-09-14T07:25:13;22.90;91.20
431;DHT22;202;48.764;9.172;2022-09-14T07:27:41;23.10;90.50
431;DHT22;202;48.764;9.172;2022-09-14T07:30:09;23.10;90.30
431;DHT22;202;48.764;9.172;2022-09-14T07:32:36;23.00;89.60
431;DHT22;202;48.764;9.172;2022-09-14T07:35:03;23.00;89.70
431;DHT22;202;48.764;9.172;2022-09-14T07:37:30;22.80;90.40
431;DHT22;202;48.764;9.172;2022-09-14T07:40:00;22.90;91.30
431;DHT22;202;48.764;9.172;2022-09-14T07:42:32;23.20;89.80
431;DHT22;202;48.764;9.172;2022-09-14T07:45:18;23.40;89.60
431;DHT22;202;48.764;9.172;2022-09-14T07:47:57;23.70;85.50
431;DHT22;202;48.764;9.172;2022-09-14T07:50:27;23.90;85.30
431;DHT22;202;48.764;9.172;2022-09-14T07:52:54;24.30;82.80
431;DHT22;202;48.764;9.172;2022-09-14T07:55:22;24.50;81.50
431;DHT22;202;48.764;9.172;2022-09-14T07:57:49;24.80;77.30
431;DHT22;202;48.764;9.172;2022-09-14T08:00:16;25.10;76.10
431;DHT22;202;48.764;9.172;2022-09-14T08:05:45;25.40;72.50
431;DHT22;202;48.764;9.172;2022-09-14T08:08:34;25.60;69.10
431;DHT22;202;48.764;9.172;2022-09-14T08:43:17;25.80;64.90
431;DHT22;202;48.764;9.172;2022-09-14T08:49:47;25.60;68.00
431;DHT22;202;48.764;9.172;2022-09-14T08:52:33;25.30;68.10
431;DHT22;202;48.764;9.172;2022-09-14T08:58:56;26.00;66.80
431;DHT22;202;48.764;9.172;2022-09-14T09:06:01;26.50;60.80
431;DHT22;202;48.764;9.172;2022-09-14T10:17:06;27.20;49.90
431;DHT22;202;48.764;9.172;2022-09-14T10:19:35;27.20;49.60
431;DHT22;202;48.764;9.172;2022-09-14T10:22:24;27.20;48.60
431;DHT22;202;48.764;9.172;2022-09-14T10:24:57;27.20;49.90
431;DHT22;202;48.764;9.172;2022-09-14T10:27:44;27.10;50.90
431;DHT22;202;48.764;9.172;2022-09-14T10:30:22;27.10;49.60
431;DHT22;202;48.764;9.172;2022-09-14T10:32:58;26.90;51.10
431;DHT22;202;48.764;9.172;2022-09-14T10:35:38;26.90;50.30
431;DHT22;202;48.764;9.172;2022-09-14T10:38:28;26.90;50.60
431;DHT22;202;48.764;9.172;2022-09-14T10:41:15;26.80;51.20
431;DHT22;202;48.764;9.172;2022-09-14T10:44:22;26.90;49.60
431;DHT22;202;48.764;9.172;2022-09-14T10:50:32;26.80;49.70
431;DHT22;202;48.764;9.172;2022-09-14T10:53:13;26.80;49.20
431;DHT22;202;48.764;9.172;2022-09-14T10:55:58;26.80;48.40
431;DHT22;202;48.764;9.172;2022-09-14T10:58:55;26.80;47.60
431;DHT22;202;48.764;9.172;2022-09-14T11:05:08;26.70;48.30
431;DHT22;202;48.764;9.172;2022-09-14T11:08:11;26.70;48.30
431;DHT22;202;48.764;9.172;2022-09-14T11:11:02;26.80;48.30
431;DHT22;202;48.764;9.172;2022-09-14T11:13:48;26.90;48.40
431;DHT22;202;48.764;9.172;2022-09-14T11:16:36;27.00;48.30
431;DHT22;202;48.764;9.172;2022-09-14T11:19:09;27.00;48.50
431;DHT22;202;48.764;9.172;2022-09-14T11:21:57;27.10;48.50
431;DHT22;202;48.764;9.172;2022-09-14T11:24:42;27.20;48.60
431;DHT22;202;48.764;9.172;2022-09-14T11:27:18;27.30;48.30
431;DHT22;202;48.764;9.172;2022-09-14T11:29:51;27.50;48.80
431;DHT22;202;48.764;9.172;2022-09-14T11:32:22;27.60;47.00
431;DHT22;202;48.764;9.172;2022-09-14T11:34:53;27.80;45.50
431;DHT22;202;48.764;9.172;2022-09-14T11:37:29;27.80;45.10
431;DHT22;202;48.764;9.172;2022-09-14T11:40:22;27.80;45.30
431;DHT22;202;48.764;9.172;2022-09-14T11:42:56;28.00;43.90
431;DHT22;202;48.764;9.172;2022-09-14T11:45:28;27.90;44.30
431;DHT22;202;48.764;9.172;2022-09-14T11:48:03;27.90;44.60
431;DHT22;202;48.764;9.172;2022-09-14T11:50:46;27.90;43.60
431;DHT22;202;48.764;9.172;2022-09-14T11:53:16;27.90;44.60
431;DHT22;202;48.764;9.172;2022-09-14T11:55:48;27.90;42.80
431;DHT22;202;48.764;9.172;2022-09-14T11:58:18;27.80;41.30
431;DHT22;202;48.764;9.172;2022-09-14T12:01:22;27.70;41.70
431;DHT22;202;48.764;9.172;2022-09-14T12:04:08;27.70;42.00
431;DHT22;202;48.764;9.172;2022-09-14T12:06:55;27.60;42.20
431;DHT22;202;48.764;9.172;2022-09-14T12:09:52;27.50;43.00
431;DHT22;202;48.764;9.172;2022-09-14T12:12:44;27.50;42.70
431;DHT22;202;48.764;9.172;2022-09-14T12:15:32;27.40;43.40
431;DHT22;202;48.764;9.172;2022-09-14T12:18:30;27.30;43.30
431;DHT22;202;48.764;9.172;2022-09-14T12:21:02;27.30;43.40
431;DHT22;202;48.764;9.172;2022-09-14T12:23:47;27.30;43.70
431;DHT22;202;48.764;9.172;2022-09-14T12:26:32;27.30;44.50
431;DHT22;202;48.764;9.172;2022-09-14T12:29:05;27.30;44.30
431;DHT22;202;48.764;9.172;2022-09-14T12:37:54;27.00;45.70
431;DHT22;202;48.764;9.172;2022-09-14T12:40:40;26.80;47.50
431;DHT22;202;48.764;9.172;2022-09-14T12:46:40;26.50;50.10
431;DHT22;202;48.764;9.172;2022-09-14T12:49:33;26.20;51.60
431;DHT22;202;48.764;9.172;2022-09-14T12:52:26;26.00;53.20
431;DHT22;202;48.764;9.172;2022-09-14T12:55:18;25.70;54.80
431;DHT22;202;48.764;9.172;2022-09-14T12:57:53;25.20;57.70
431;DHT22;202;48.764;9.172;2022-09-14T13:00:21;24.80;59.70
431;DHT22;202;48.764;9.172;2022-09-14T13:03:08;24.50;63.60
431;DHT22;202;48.764;9.172;2022-09-14T13:05:42;24.30;66.50
431;DHT22;202;48.764;9.172;2022-09-14T13:08:12;24.10;69.70
431;DHT22;202;48.764;9.172;2022-09-14T13:10:46;24.00;71.90
431;DHT22;202;48.764;9.172;2022-09-14T13:13:17;23.90;75.90
431;DHT22;202;48.764;9.172;2022-09-14T13:15:50;23.80;75.50
431;DHT22;202;48.764;9.172;2022-09-14T13:18:28;23.70;77.50
431;DHT22;202;48.764;9.172;2022-09-14T13:20:57;23.60;79.10
431;DHT22;202;48.764;9.172;2022-09-14T13:23:29;23.40;79.00
431;DHT22;202;48.764;9.172;2022-09-14T13:25:58;23.40;79.40
431;DHT22;202;48.764;9.172;2022-09-14T13:28:29;23.40;81.00
431;DHT22;202;48.764;9.172;2022-09-14T13:31:04;23.30;78.70
431;DHT22;202;48.764;9.172;2022-09-14T13:33:32;23.20;80.20
431;DHT22;202;48.764;9.172;2022-09-14T13:36:01;23.10;84.00
431;DHT22;202;48.764;9.172;2022-09-14T13:38:31;23.10;82.80
431;DHT22;202;48.764;9.172;2022-09-14T13:41:04;23.10;85.00
431;DHT22;202;48.764;9.172;2022-09-14T13:43:32;23.00;84.00
431;DHT22;202;48.764;9.172;2022-09-14T13:46:00;23.00;83.90
431;DHT22;202;48.764;9.172;2022-09-14T13:48:31;23.00;83.70
431;DHT22;202;48.764;9.172;2022-09-14T13:50:59;23.00;85.90
431;DHT22;202;48.764;9.172;2022-09-14T13:53:41;23.00;86.60
431;DHT22;202;48.764;9.172;2022-09-14T13:56:21;23.10;82.00
431;DHT22;202;48.764;9.172;2022-09-14T13:59:11;23.00;83.10
431;DHT22;202;48.764;9.172;2022-09-14T14:01:41;23.00;83.10
431;DHT22;202;48.764;9.172;2022-09-14T14:04:26;23.00;79.10
431;DHT22;202;48.764;9.172;2022-09-14T14:07:19;23.00;80.10
431;DHT22;202;48.764;9.172;2022-09-14T14:09:51;23.00;81.20
431;DHT22;202;48.764;9.172;2022-09-14T14:12:22;23.00;80.10
431;DHT22;202;48.764;9.172;2022-09-14T14:15:05;23.10;76.30
431;DHT22;202;48.764;9.172;2022-09-14T14:17:38;23.00;77.90
431;DHT22;202;48.764;9.172;2022-09-14T14:21:37;22.90;76.90
431;DHT22;202;48.764;9.172;2022-09-14T14:24:23;22.90;78.00
431;DHT22;202;48.764;9.172;2022-09-14T14:27:25;22.80;80.60
431;DHT22;202;48.764;9.172;2022-09-14T14:30:16;22.80;80.40
431;DHT22;202;48.764;9.172;2022-09-14T14:36:03;22.70;83.60
431;DHT22;202;48.764;9.172;2022-09-14T14:38:52;22.70;83.70
431;DHT22;202;48.764;9.172;2022-09-14T14:41:22;22.70;82.20
431;DHT22;202;48.764;9.172;2022-09-14T14:46:18;22.70;82.30
431;DHT22;202;48.764;9.172;2022-09-14T14:48:09;22.60;83.10
431;DHT22;202;48.764;9.172;2022-09-14T14:53:46;22.50;81.70
431;DHT22;202;48.764;9.172;2022-09-14T14:56:43;22.50;81.80
431;DHT22;202;48.764;9.172;2022-09-14T15:01:57;22.50;80.50
431;DHT22;202;48.764;9.172;2022-09-14T15:04:47;22.40;82.40
431;DHT22;202;48.764;9.172;2022-09-14T15:07:30;22.40;84.30
431;DHT22;202;48.764;9.172;2022-09-14T15:10:27;22.40;84.30
431;DHT22;202;48.764;9.172;2022-09-14T15:13:07;22.40;82.50
431;DHT22;202;48.764;9.172;2022-09-14T15:15:34;22.40;81.00
431;DHT22;202;48.764;9.172;2022-09-14T15:18:01;22.20;79.70
431;DHT22;202;48.764;9.172;2022-09-14T15:27:31;22.00;83.30
431;DHT22;202;48.764;9.172;2022-09-14T15:29:59;22.10;84.00
431;DHT22;202;48.764;9.172;2022-09-14T15:32:37;22.10;84.60
431;DHT22;202;48.764;9.172;2022-09-14T15:39:21;22.00;83.10
431;DHT22;202;48.764;9.172;2022-09-14T15:42:36;21.70;83.70
431;DHT22;202;48.764;9.172;2022-09-14T15:45:30;21.70;84.00
431;DHT22;202;48.764;9.172;2022-09-14T15:47:58;21.60;84.70
431;DHT22;202;48.764;9.172;2022-09-14T15:50:25;21.70;85.50
431;DHT22;202;48.764;9.172;2022-09-14T15:52:52;21.60;84.30
431;DHT22;202;48.764;9.172;2022-09-14T15:55:19;21.50;84.70
431;DHT22;202;48.764;9.172;2022-09-14T15:57:49;21.50;84.30
431;DHT22;202;48.764;9.172;2022-09-14T16:00:20;21.50;83.50
431;DHT22;202;48.764;9.172;2022-09-14T16:02:48;21.50;83.10
431;DHT22;202;48.764;9.172;2022-09-14T16:05:15;21.50;83.90
431;DHT22;202;48.764;9.172;2022-09-14T16:07:43;21.50;83.40
431;DHT22;202;48.764;9.172;2022-09-14T16:10:10;21.40;83.40
431;DHT22;202;48.764;9.172;2022-09-14T16:12:37;21.40;83.30
431;DHT22;202;48.764;9.172;2022-09-14T16:15:07;21.50;83.90
431;DHT22;202;48.764;9.172;2022-09-14T16:17:40;21.40;84.70
431;DHT22;202;48.764;9.172;2022-09-14T16:20:10;21.40;85.70
431;DHT22;202;48.764;9.172;2022-09-14T16:22:42;21.40;83.40
431;DHT22;202;48.764;9.172;2022-09-14T16:25:10;21.40;84.60
431;DHT22;202;48.764;9.172;2022-09-14T16:27:36;21.30;84.10
431;DHT22;202;48.764;9.172;2022-09-14T16:30:11;21.20;85.70
431;DHT22;202;48.764;9.172;2022-09-14T16:43:27;21.20;87.70
431;DHT22;202;48.764;9.172;2022-09-14T16:52:10;21.20;86.60
431;DHT22;202;48.764;9.172;2022-09-14T22:19:29;20.70;78.90
431;DHT22;202;48.764;9.172;2022-09-14T22:29:07;20.90;78.00
431;DHT22;202;48.764;9.172;2022-09-14T22:31:35;21.00;76.90
431;DHT22;202;48.764;9.172;2022-09-14T22:34:03;21.00;76.50
431;DHT22;202;48.764;9.172;2022-09-14T22:36:31;21.10;77.10
431;DHT22;202;48.764;9.172;2022-09-14T22:39:02;21.10;76.10
431;DHT22;202;48.764;9.172;2022-09-14T22:41:39;21.10;75.50
431;DHT22;202;48.764;9.172;2022-09-14T22:44:06;21.20;75.10
431;DHT22;202;48.764;9.172;2022-09-14T22:46:34;21.20;74.90
431;DHT22;202;48.764;9.172;2022-09-14T22:49:01;21.10;78.10
431;DHT22;202;48.764;9.172;2022-09-14T22:51:33;21.10;78.00
431;DHT22;202;48.764;9.172;2022-09-14T22:54:00;21.00;78.10
431;DHT22;202;48.764;9.172;2022-09-14T22:56:39;21.00;79.60
431;DHT22;202;48.764;9.172;2022-09-14T22:59:20;21.00;79.30
431;DHT22;202;48.764;9.172;2022-09-14T23:05:06;21.10;78.00
431;DHT22;202;48.764;9.172;2022-09-14T23:07:35;21.10;77.60
431;DHT22;202;48.764;9.172;2022-09-14T23:10:07;21.10;78.50
431;DHT22;202;48.764;9.172;2022-09-14T23:12:37;21.10;79.50
431;DHT22;202;48.764;9.172;2022-09-14T23:15:22;21.10;80.10
431;DHT22;202;48.764;9.172;2022-09-14T23:18:05;21.10;80.00
431;DHT22;202;48.764;9.172;2022-09-14T23:20:37;21.00;81.60
431;DHT22;202;48.764;9.172;2022-09-14T23:27:06;21.00;83.00
431;DHT22;202;48.764;9.172;2022-09-14T23:30:05;21.00;82.90
431;DHT22;202;48.764;9.172;2022-09-14T23:32:53;21.00;81.90
431;DHT22;202;48.764;9.172;2022-09-14T23:38:32;21.00;82.90
431;DHT22;202;48.764;9.172;2022-09-14T23:41:05;20.90;82.80
431;DHT22;202;48.764;9.172;2022-09-14T23:43:38;20.90;82.90
431;DHT22;202;48.764;9.172;2022-09-14T23:46:10;20.90;83.70
431;DHT22;202;48.764;9.172;2022-09-14T23:48:43;20.90;82.90
431;DHT22;202;48.764;9.172;2022-09-14T23:51:14;20.80;83.90
431;DHT22;202;48.764;9.172;2022-09-14T23:53:48;20.80;84.40
431;DHT22;202;48.764;9.172;2022-09-14T23:56:27;20.80;83.60
431;DHT22;202;48.764;9.172;2022-09-14T23:59:12;20.80;82.80
